Time;durP1;ratioP1;P1;durP2;ratioP2;P2;SDS_P1;SDS_P2;PMS_P1;PMS_P2;Temp;Humidity;BMP_temperature;BMP_pressure;BME280_temperature;BME280_humidity;BME280_pressure;Samples;Min_cycle;Max_cycle;Signal;HPM_P1;HPM_P2
2021/01/06 00:02:06;;;;;;;26.48;15.18;;;6.20;71.10;;;;;;4878436;29;20072;-78
2021/01/06 00:04:31;;;;;;;27.48;14.60;;;6.00;71.00;;;;;;4880104;29;20377;-77
2021/01/06 00:06:57;;;;;;;26.95;13.82;;;6.20;71.10;;;;;;4879540;29;20041;-78
2021/01/06 00:09:23;;;;;;;26.67;14.27;;;6.20;71.00;;;;;;4879859;29;20481;-78
2021/01/06 00:11:49;;;;;;;28.48;15.18;;;6.10;71.10;;;;;;4878461;29;20047;-78
2021/01/06 00:14:16;;;;;;;26.40;14.73;;;6.20;71.20;;;;;;4878519;29;20037;-78
2021/01/06 00:16:42;;;;;;;26.35;14.68;;;6.20;71.10;;;;;;4879977;29;20124;-78
2021/01/06 00:19:11;;;;;;;25.33;14.75;;;6.10;71.10;;;;;;4878287;29;20032;-78
2021/01/06 00:21:38;;;;;;;26.75;14.60;;;5.90;70.90;;;;;;4863143;29;20049;-78
2021/01/06 00:24:05;;;;;;;29.67;15.88;;;6.20;71.20;;;;;;4878416;29;20037;-78
2021/01/06 00:26:33;;;;;;;27.83;15.13;;;6.10;71.20;;;;;;4879530;29;20036;-78
2021/01/06 00:28:59;;;;;;;30.58;16.05;;;6.10;71.20;;;;;;4880031;29;20025;-78
2021/01/06 00:31:25;;;;;;;29.95;15.20;;;6.20;71.20;;;;;;4879821;29;20085;-79
2021/01/06 00:33:51;;;;;;;28.55;15.50;;;6.20;71.30;;;;;;4878397;29;20041;-78
2021/01/06 00:36:20;;;;;;;28.67;15.52;;;6.20;71.30;;;;;;4879424;29;20469;-78
2021/01/06 00:38:46;;;;;;;30.08;16.13;;;6.30;71.20;;;;;;4879808;29;20481;-77
2021/01/06 00:41:12;;;;;;;27.23;15.18;;;6.00;71.20;;;;;;4878340;29;20047;-78
2021/01/06 00:47:23;;;;;;;29.10;15.88;;;6.40;71.10;;;;;;4883296;29;20032;-77
2021/01/06 00:49:54;;;;;;;30.35;15.25;;;6.40;71.00;;;;;;4883665;29;20041;-77
2021/01/06 00:52:41;;;;;;;28.98;15.13;;;6.20;71.10;;;;;;4876173;29;20044;-78
2021/01/06 00:55:11;;;;;;;27.27;15.10;;;6.20;70.90;;;;;;4882666;29;20529;-77
2021/01/06 00:57:37;;;;;;;27.38;15.25;;;6.30;71.20;;;;;;4881647;29;20096;-77
2021/01/06 01:00:16;;;;;;;29.23;15.32;;;6.00;71.20;;;;;;4882105;29;20496;-78
2021/01/06 01:02:45;;;;;;;30.63;16.17;;;6.10;71.40;;;;;;4881650;29;20469;-77
2021/01/06 01:05:12;;;;;;;27.92;15.48;;;5.70;71.30;;;;;;4882318;29;20041;-78
2021/01/06 01:07:42;;;;;;;29.75;15.95;;;6.20;71.50;;;;;;4881580;29;20524;-78
2021/01/06 01:10:08;;;;;;;29.10;15.82;;;5.60;71.30;;;;;;4881173;29;20107;-78
2021/01/06 01:12:34;;;;;;;28.55;15.90;;;6.20;71.70;;;;;;4881284;29;20498;-78
2021/01/06 01:15:00;;;;;;;31.60;16.88;;;6.00;71.60;;;;;;4881933;29;20096;-78
2021/01/06 01:17:25;;;;;;;30.75;16.02;;;6.00;71.80;;;;;;4881311;29;20048;-78
2021/01/06 01:19:51;;;;;;;32.38;16.33;;;5.80;71.50;;;;;;4880795;29;20037;-78
2021/01/06 01:22:17;;;;;;;32.65;16.90;;;6.10;71.60;;;;;;4880882;29;20101;-78
2021/01/06 01:32:01;;;;;;;28.52;15.77;;;5.90;71.30;;;;;;4882683;29;20528;-77
2021/01/06 01:34:27;;;;;;;30.60;16.02;;;5.80;71.40;;;;;;4882185;29;20508;-78
2021/01/06 01:36:54;;;;;;;28.10;15.73;;;6.00;71.70;;;;;;4882074;29;20045;-78
2021/01/06 01:40:00;;;;;;;29.75;15.68;;;5.90;72.00;;;;;;4882309;29;20059;-77
2021/01/06 01:42:26;;;;;;;29.70;15.35;;;5.60;71.60;;;;;;4865035;29;20128;-77
2021/01/06 01:45:04;;;;;;;30.50;15.90;;;5.80;71.90;;;;;;4880716;29;20127;-78
2021/01/06 01:47:42;;;;;;;31.00;16.17;;;5.80;71.90;;;;;;4882154;29;20390;-77
2021/01/06 01:50:08;;;;;;;28.40;16.02;;;5.90;72.00;;;;;;4881749;29;20028;-77
2021/01/06 01:52:47;;;;;;;29.50;15.93;;;5.70;72.00;;;;;;4881722;29;20052;-78
2021/01/06 01:55:15;;;;;;;30.33;16.58;;;6.00;72.20;;;;;;4879927;29;20060;-77
2021/01/06 01:57:47;;;;;;;30.33;16.23;;;5.80;72.00;;;;;;4881296;29;20033;-77
2021/01/06 02:00:20;;;;;;;32.30;17.05;;;5.80;72.10;;;;;;4880150;29;20139;-77
2021/01/06 02:03:07;;;;;;;30.70;16.58;;;6.00;72.20;;;;;;4880436;29;20037;-77
2021/01/06 02:05:41;;;;;;;31.25;16.15;;;5.90;72.10;;;;;;4880490;29;20145;-78
2021/01/06 02:08:23;;;;;;;28.98;15.77;;;5.90;72.00;;;;;;4880163;29;20064;-78
2021/01/06 02:11:03;;;;;;;31.15;16.60;;;6.20;72.30;;;;;;4881150;29;20039;-78
2021/01/06 02:13:36;;;;;;;31.90;16.17;;;5.70;72.00;;;;;;4880274;29;20041;-78
2021/01/06 02:16:31;;;;;;;29.17;16.67;;;6.10;72.30;;;;;;4881699;29;20141;-78
2021/01/06 02:18:57;;;;;;;31.35;15.95;;;5.90;72.20;;;;;;4881176;29;20045;-78
2021/01/06 02:21:26;;;;;;;30.98;16.25;;;6.00;72.30;;;;;;4864582;29;20124;-78
2021/01/06 02:23:54;;;;;;;29.88;16.02;;;5.90;72.30;;;;;;4879873;29;20040;-78
2021/01/06 02:26:21;;;;;;;31.00;16.92;;;5.80;72.20;;;;;;4881049;29;20029;-78
2021/01/06 02:28:48;;;;;;;29.30;16.35;;;5.90;72.30;;;;;;4881198;29;20041;-78
2021/01/06 02:31:15;;;;;;;32.47;16.52;;;6.00;72.40;;;;;;4881004;29;20040;-77
2021/01/06 02:33:42;;;;;;;31.92;17.33;;;6.00;72.40;;;;;;4879193;29;20048;-77
2021/01/06 02:36:08;;;;;;;35.33;18.20;;;5.90;72.40;;;;;;4864409;29;20061;-78
2021/01/06 02:38:35;;;;;;;36.88;18.77;;;6.00;72.30;;;;;;4880732;29;20123;-78
2021/01/06 02:41:01;;;;;;;36.78;18.95;;;6.30;72.60;;;;;;4863985;29;20047;-78
2021/01/06 02:43:28;;;;;;;34.30;18.13;;;6.20;72.50;;;;;;4879715;29;20041;-77
2021/01/06 02:45:55;;;;;;;32.20;16.88;;;6.00;72.30;;;;;;4879807;29;20520;-78
2021/01/06 02:48:23;;;;;;;31.83;17.13;;;6.00;72.30;;;;;;4879278;29;20037;-78
2021/01/06 02:50:52;;;;;;;32.05;16.50;;;6.00;72.20;;;;;;4880820;29;20129;-78
2021/01/06 02:53:53;;;;;;;30.88;16.40;;;6.00;72.30;;;;;;4879332;29;20506;-78
2021/01/06 02:56:21;;;;;;;32.17;16.83;;;6.00;72.40;;;;;;4879670;29;20057;-78
2021/01/06 02:58:49;;;;;;;32.92;17.10;;;6.10;72.60;;;;;;4880763;29;20131;-78
2021/01/06 03:01:18;;;;;;;33.67;17.45;;;6.10;72.60;;;;;;4880876;29;20582;-78
2021/01/06 03:03:45;;;;;;;31.40;17.13;;;6.00;72.60;;;;;;4879238;29;20041;-78
2021/01/06 03:06:21;;;;;;;32.92;17.20;;;5.80;72.40;;;;;;4878609;29;20036;-78
2021/01/06 03:08:47;;;;;;;31.63;16.88;;;5.80;72.40;;;;;;4879553;29;20040;-78
2021/01/06 03:11:13;;;;;;;30.90;17.00;;;5.80;72.30;;;;;;4879297;29;20040;-78
2021/01/06 03:13:39;;;;;;;30.60;16.55;;;6.00;72.50;;;;;;4880655;29;20101;-78
2021/01/06 03:16:06;;;;;;;32.33;16.92;;;6.00;72.50;;;;;;4879145;29;20132;-78
2021/01/06 03:18:32;;;;;;;35.47;17.80;;;5.70;72.60;;;;;;4878625;29;20485;-78
2021/01/06 03:21:04;;;;;;;30.88;16.90;;;5.70;72.70;;;;;;4879479;29;20036;-78
2021/01/06 03:23:38;;;;;;;31.40;16.92;;;5.70;72.80;;;;;;4878889;29;20500;-78
2021/01/06 03:26:09;;;;;;;33.20;17.35;;;5.70;72.80;;;;;;4880323;29;20029;-78
2021/01/06 03:28:36;;;;;;;32.70;17.30;;;5.90;72.80;;;;;;4880560;29;20128;-78
2021/01/06 03:31:07;;;;;;;32.70;16.73;;;5.90;72.70;;;;;;4880434;29;20488;-79
2021/01/06 03:33:46;;;;;;;35.85;18.15;;;5.90;72.80;;;;;;4879802;29;20045;-78
2021/01/06 03:36:21;;;;;;;34.42;18.80;;;5.80;72.70;;;;;;4878850;29;20508;-78
2021/01/06 03:39:03;;;;;;;33.05;17.88;;;5.70;72.60;;;;;;4880243;29;20102;-79
2021/01/06 03:41:30;;;;;;;33.25;17.33;;;6.00;72.70;;;;;;4880028;29;20107;-78
2021/01/06 03:44:06;;;;;;;37.97;18.85;;;6.10;72.80;;;;;;4879075;29;20144;-78
2021/01/06 03:47:13;;;;;;;33.05;17.38;;;6.00;72.80;;;;;;4878370;29;20037;-78
2021/01/06 03:49:52;;;;;;;33.47;17.33;;;5.80;72.70;;;;;;4803577;29;20053;-78
2021/01/06 03:52:43;;;;;;;37.35;20.25;;;6.10;72.90;;;;;;4874730;29;20546;-78
2021/01/06 03:55:28;;;;;;;37.88;20.23;;;6.10;72.90;;;;;;4853004;29;20093;-78
2021/01/06 03:57:55;;;;;;;36.00;18.93;;;5.90;73.00;;;;;;4878652;29;20043;-78
2021/01/06 04:00:29;;;;;;;39.58;19.52;;;6.00;72.80;;;;;;4878936;29;20037;-78
2021/01/06 04:02:58;;;;;;;35.38;18.02;;;6.00;72.80;;;;;;4878447;29;20047;-78
2021/01/06 04:05:27;;;;;;;31.90;17.70;;;5.80;72.70;;;;;;4879937;29;20097;-78
2021/01/06 04:07:55;;;;;;;32.03;17.10;;;5.70;72.60;;;;;;4878719;29;20063;-78
2021/01/06 04:10:39;;;;;;;33.80;17.48;;;5.90;72.70;;;;;;4878324;29;20041;-78
2021/01/06 04:13:05;;;;;;;34.13;17.92;;;5.70;72.60;;;;;;4879704;29;20101;-78
2021/01/06 04:15:31;;;;;;;38.28;19.27;;;5.90;72.90;;;;;;4878840;29;20045;-78
2021/01/06 04:17:57;;;;;;;36.85;19.63;;;5.70;72.70;;;;;;4879730;29;20038;-78
2021/01/06 04:20:35;;;;;;;37.08;18.15;;;5.90;72.70;;;;;;4883773;29;20041;-78
2021/01/06 04:23:04;;;;;;;34.33;18.17;;;6.10;72.60;;;;;;4883436;29;20041;-78
2021/01/06 04:25:32;;;;;;;34.47;17.80;;;5.60;72.30;;;;;;4866931;29;20041;-79
2021/01/06 04:28:02;;;;;;;37.40;18.58;;;5.40;72.10;;;;;;4882222;29;20044;-78
2021/01/06 04:30:36;;;;;;;39.75;19.40;;;5.70;72.40;;;;;;4883880;29;20033;-78
2021/01/06 04:33:05;;;;;;;32.67;17.13;;;5.80;72.40;;;;;;4883162;29;20081;-78
2021/01/06 04:35:32;;;;;;;36.47;18.50;;;5.80;72.40;;;;;;4883302;29;20041;-79
2021/01/06 04:37:59;;;;;;;36.25;18.20;;;5.10;72.00;;;;;;4882005;29;20037;-78
2021/01/06 04:40:31;;;;;;;35.78;17.90;;;5.50;72.20;;;;;;4881979;29;20093;-78
2021/01/06 04:43:04;;;;;;;34.58;18.35;;;5.50;72.20;;;;;;4881781;29;20045;-78
2021/01/06 04:45:36;;;;;;;37.38;18.60;;;5.30;72.20;;;;;;4883104;29;20120;-78
2021/01/06 04:48:27;;;;;;;34.50;18.30;;;5.20;72.20;;;;;;4882980;29;20032;-78
2021/01/06 04:51:14;;;;;;;38.13;18.50;;;5.10;72.20;;;;;;4883095;29;20045;-78
2021/01/06 04:53:47;;;;;;;37.55;18.40;;;5.10;72.30;;;;;;4882782;29;20061;-78
2021/01/06 04:56:42;;;;;;;35.97;18.33;;;5.30;72.50;;;;;;4881356;29;20043;-78
2021/01/06 04:59:45;;;;;;;31.83;14.20;;;5.10;72.40;;;;;;4853656;29;20568;-78
2021/01/06 05:02:26;;;;;;;35.85;18.58;;;5.10;72.40;;;;;;4865974;29;20079;-78
2021/01/06 05:05:29;;;;;;;38.47;18.40;;;5.10;72.30;;;;;;4882383;29;20556;-78
2021/01/06 05:07:58;;;;;;;39.20;18.55;;;5.10;72.30;;;;;;4882735;29;20047;-78
2021/01/06 05:10:28;;;;;;;40.28;18.88;;;5.10;72.60;;;;;;4880939;29;20033;-78
2021/01/06 05:13:00;;;;;;;34.40;17.23;;;5.10;72.70;;;;;;4881016;29;20072;-78
2021/01/06 05:15:42;;;;;;;36.78;18.98;;;5.00;72.70;;;;;;4880996;29;20041;-78
2021/01/06 05:18:08;;;;;;;37.92;18.58;;;4.90;72.60;;;;;;4881980;29;20596;-78
2021/01/06 05:20:35;;;;;;;38.17;19.23;;;5.20;72.80;;;;;;4865512;29;20142;-78
2021/01/06 05:23:05;;;;;;;39.03;18.40;;;5.20;72.80;;;;;;4881303;29;20408;-78
2021/01/06 05:25:34;;;;;;;35.90;18.38;;;5.30;73.00;;;;;;4882129;29;20040;-78
2021/01/06 05:28:00;;;;;;;36.83;18.58;;;5.30;73.00;;;;;;4882196;29;20088;-78
2021/01/06 05:30:33;;;;;;;39.53;19.42;;;5.30;73.00;;;;;;4880091;29;20048;-78
2021/01/06 05:33:04;;;;;;;36.55;18.67;;;5.30;72.90;;;;;;4880493;29;20382;-78
2021/01/06 05:35:36;;;;;;;38.45;19.52;;;5.40;73.00;;;;;;4880910;29;20045;-78
2021/01/06 05:38:03;;;;;;;35.08;18.55;;;5.70;73.20;;;;;;4880915;29;20033;-78
2021/01/06 05:40:33;;;;;;;39.40;19.20;;;5.40;73.00;;;;;;4882021;29;20029;-78
2021/01/06 05:43:27;;;;;;;34.72;18.42;;;5.60;73.20;;;;;;4880682;29;20072;-78
2021/01/06 05:45:57;;;;;;;35.92;18.42;;;5.40;73.00;;;;;;4837859;29;20073;-78
2021/01/06 05:49:06;;;;;;;36.80;18.25;;;5.50;73.10;;;;;;4880256;29;20037;-78
2021/01/06 05:51:34;;;;;;;36.08;18.25;;;5.60;72.90;;;;;;4824218;29;20092;-78
2021/01/06 05:54:05;;;;;;;38.97;19.30;;;5.30;72.60;;;;;;4853564;29;20069;-79
2021/01/06 05:57:12;;;;;;;38.25;19.23;;;5.30;72.70;;;;;;4880423;29;20041;-78
2021/01/06 06:00:19;;;;;;;39.10;18.65;;;5.30;72.70;;;;;;4880394;29;20060;-78
2021/01/06 06:03:06;;;;;;;39.05;19.05;;;4.70;72.40;;;;;;4881606;29;20041;-78
2021/01/06 06:05:43;;;;;;;37.80;18.80;;;4.60;72.50;;;;;;4881590;29;20109;-78
2021/01/06 06:08:08;;;;;;;33.67;17.73;;;4.60;72.50;;;;;;4881577;29;20123;-78
2021/01/06 06:10:55;;;;;;;37.60;18.17;;;4.70;72.70;;;;;;4880157;29;20449;-78
2021/01/06 06:13:21;;;;;;;37.53;18.13;;;4.20;72.40;;;;;;4881170;29;20048;-78
2021/01/06 06:16:25;;;;;;;36.17;17.73;;;4.60;72.70;;;;;;4881367;29;20047;-78
2021/01/06 06:19:24;;;;;;;40.92;18.80;;;4.60;72.50;;;;;;4864204;29;20464;-78
2021/01/06 06:22:09;;;;;;;38.78;18.33;;;4.30;72.50;;;;;;4864538;29;20414;-78
2021/01/06 06:24:41;;;;;;;39.47;18.92;;;4.20;72.40;;;;;;4879952;29;20089;-78
2021/01/06 06:27:34;;;;;;;40.03;19.13;;;4.30;72.60;;;;;;4879862;29;20037;-78
2021/01/06 06:30:15;;;;;;;37.10;18.10;;;4.40;72.70;;;;;;4876175;29;20127;-79
2021/01/06 06:32:44;;;;;;;41.38;19.85;;;4.10;72.80;;;;;;4879731;29;20610;-79
2021/01/06 06:35:26;;;;;;;43.17;19.35;;;4.00;72.90;;;;;;4890331;29;20037;-79
2021/01/06 06:37:58;;;;;;;43.55;19.20;;;4.30;73.20;;;;;;4896369;29;20069;-78
2021/01/06 06:40:25;;;;;;;47.30;21.27;;;4.30;73.80;;;;;;4869510;29;20479;-79
2021/01/06 06:43:00;;;;;;;48.20;21.23;;;4.00;73.20;;;;;;4861656;29;20502;-78
2021/01/06 06:45:38;;;;;;;48.42;20.73;;;4.00;73.10;;;;;;4861684;29;20067;-79
2021/01/06 06:48:09;;;;;;;50.10;21.15;;;4.00;73.10;;;;;;4878709;29;20032;-78
2021/01/06 06:50:54;;;;;;;45.45;20.95;;;3.70;72.90;;;;;;4882162;29;20560;-78
2021/01/06 06:53:38;;;;;;;45.50;20.40;;;3.80;73.20;;;;;;4898541;29;20564;-78
2021/01/06 06:56:32;;;;;;;45.58;20.48;;;3.90;73.10;;;;;;4897865;29;20029;-78
2021/01/06 06:59:37;;;;;;;46.92;21.63;;;3.50;72.90;;;;;;4882315;29;20032;-80
2021/01/06 07:02:04;;;;;;;54.22;24.85;;;4.10;73.40;;;;;;4881970;29;20036;-78
2021/01/06 07:04:52;;;;;;;41.97;19.08;;;4.00;73.50;;;;;;4897790;29;20052;-78
2021/01/06 07:07:36;;;;;;;48.33;20.67;;;4.00;73.60;;;;;;4895373;29;20496;-79
2021/01/06 07:10:15;;;;;;;46.88;20.73;;;3.90;73.50;;;;;;4863213;29;20075;-78
2021/01/06 07:12:41;;;;;;;44.67;21.20;;;3.90;73.50;;;;;;4863296;29;20033;-80
2021/01/06 07:15:25;;;;;;;54.88;26.10;;;3.90;73.60;;;;;;4880430;29;20074;-78
2021/01/06 07:17:51;;;;;;;43.17;20.45;;;3.90;73.50;;;;;;4879996;29;20033;-77
2021/01/06 07:20:59;;;;;;;58.15;27.00;;;4.10;73.60;;;;;;4862582;29;20037;-77
2021/01/06 07:23:26;;;;;;;56.92;24.98;;;3.90;73.50;;;;;;4827249;29;20111;-81
2021/01/06 07:26:10;;;;;;;59.67;25.58;;;4.10;73.70;;;;;;4876204;29;20046;-81
2021/01/06 07:28:36;;;;;;;49.50;24.40;;;4.10;73.70;;;;;;4875745;29;20033;-80
2021/01/06 07:31:17;;;;;;;43.13;20.23;;;4.30;74.00;;;;;;4861272;29;20655;-81
2021/01/06 07:33:45;;;;;;;45.53;21.67;;;4.40;74.10;;;;;;4875189;29;20041;-82
2021/01/06 07:36:11;;;;;;;47.15;21.25;;;4.40;74.20;;;;;;4875017;29;20418;-81
2021/01/06 07:38:37;;;;;;;45.63;21.77;;;4.40;74.30;;;;;;4861125;29;20038;-78
2021/01/06 07:41:04;;;;;;;49.47;21.83;;;4.50;74.10;;;;;;4875351;29;20042;-77
2021/01/06 07:43:31;;;;;;;44.60;20.92;;;4.60;74.30;;;;;;4861481;29;20048;-76
2021/01/06 07:46:53;;;;;;;45.80;22.33;;;4.70;74.30;;;;;;4875417;29;20472;-77
2021/01/06 07:52:57;;;;;;;43.17;21.08;;;4.80;74.40;;;;;;4873581;29;20389;-78
2021/01/06 07:56:27;;;;;;;42.05;19.67;;;4.90;74.40;;;;;;4827059;29;20600;-77
2021/01/06 07:59:02;;;;;;;40.50;20.35;;;4.80;74.20;;;;;;4834818;29;20207;-78
2021/01/06 08:05:24;;;;;;;42.47;20.42;;;4.80;74.20;;;;;;4844806;29;20120;-78
2021/01/06 08:08:33;;;;;;;40.05;19.70;;;4.70;74.50;;;;;;4845208;29;20080;-76
2021/01/06 08:15:16;;;;;;;49.53;23.40;;;4.70;74.40;;;;;;4844480;29;20455;-76
2021/01/06 08:25:02;;;;;;;41.17;20.47;;;4.90;74.40;;;;;;4787612;29;20142;-77
2021/01/06 08:27:37;;;;;;;45.55;21.83;;;5.30;74.70;;;;;;4790457;29;20371;-76
2021/01/06 08:36:54;;;;;;;45.08;23.02;;;5.10;74.60;;;;;;4859457;29;20052;-76
2021/01/06 08:39:25;;;;;;;45.20;23.10;;;5.20;74.80;;;;;;4859235;29;20034;-76
2021/01/06 08:41:57;;;;;;;42.47;20.95;;;5.00;74.70;;;;;;4860751;29;20045;-77
2021/01/06 08:44:40;;;;;;;41.45;20.60;;;4.90;74.60;;;;;;4860126;29;20370;-76
2021/01/06 08:50:36;;;;;;;41.17;20.02;;;5.20;74.80;;;;;;4859571;29;20113;-77
2021/01/06 08:53:08;;;;;;;37.35;19.45;;;5.00;74.70;;;;;;4874685;29;20053;-76
2021/01/06 08:59:26;;;;;;;40.13;20.73;;;5.90;74.90;;;;;;4830658;29;20084;-77
2021/01/06 09:12:33;;;;;;;40.28;20.98;;;5.50;74.50;;;;;;4843068;29;20452;-77
2021/01/06 09:15:00;;;;;;;42.35;21.58;;;5.70;74.60;;;;;;4826279;29;20157;-76
2021/01/06 09:17:49;;;;;;;46.28;22.35;;;5.60;74.50;;;;;;4825485;29;20042;-79
2021/01/06 09:20:23;;;;;;;48.97;23.80;;;5.50;74.30;;;;;;4829835;29;20042;-80
2021/01/06 09:26:57;;;;;;;41.55;22.42;;;5.60;74.00;;;;;;4827339;29;20537;-75
2021/01/06 09:29:48;;;;;;;39.85;22.15;;;5.90;74.10;;;;;;4846566;29;20128;-76
2021/01/06 09:35:40;;;;;;;40.80;21.02;;;6.00;74.00;;;;;;4857848;29;20074;-75
2021/01/06 09:38:44;;;;;;;46.63;25.38;;;6.10;74.10;;;;;;4859118;29;20121;-74
2021/01/06 09:41:15;;;;;;;50.55;25.83;;;6.20;74.10;;;;;;4854465;29;20041;-74
2021/01/06 09:46:42;;;;;;;48.33;25.55;;;6.00;74.00;;;;;;4855555;29;20056;-74
2021/01/06 09:49:12;;;;;;;40.75;21.80;;;5.90;74.00;;;;;;4858975;29;20030;-73
2021/01/06 09:58:39;;;;;;;41.13;21.95;;;6.00;73.90;;;;;;4871909;29;20129;-73
2021/01/06 10:01:30;;;;;;;38.72;20.63;;;6.00;74.50;;;;;;4876791;29;20060;-73
2021/01/06 10:04:02;;;;;;;37.63;20.80;;;6.00;74.00;;;;;;4869810;29;20045;-71
2021/01/06 10:06:49;;;;;;;40.75;20.77;;;6.00;74.00;;;;;;4873730;29;20064;-72
2021/01/06 10:09:38;;;;;;;42.58;21.65;;;6.10;74.10;;;;;;4879613;29;20068;-73
2021/01/06 10:12:25;;;;;;;39.97;20.60;;;6.10;74.10;;;;;;4886382;29;20553;-73
2021/01/06 10:15:17;;;;;;;42.50;22.33;;;6.10;73.90;;;;;;4881171;29;20068;-72
2021/01/06 10:18:13;;;;;;;46.47;24.85;;;6.00;74.00;;;;;;4879903;29;20049;-72
2021/01/06 10:24:58;;;;;;;67.20;33.72;;;6.20;74.10;;;;;;4822280;29;20174;-72
2021/01/06 10:27:33;;;;;;;47.08;24.40;;;6.30;74.00;;;;;;4819691;29;20114;-74
2021/01/06 10:33:24;;;;;;;79.38;31.67;;;6.50;74.00;;;;;;4824947;29;20068;-72
2021/01/06 10:36:47;;;;;;;75.28;29.70;;;6.70;74.00;;;;;;4840041;29;20070;-74
2021/01/06 10:39:41;;;;;;;47.33;23.17;;;6.80;73.60;;;;;;4784683;29;20523;-73
2021/01/06 10:42:32;;;;;;;54.25;24.92;;;6.90;73.40;;;;;;4774488;30;20040;-74
2021/01/06 10:45:42;;;;;;;45.75;22.17;;;7.20;73.30;;;;;;4839195;29;20084;-74
2021/01/06 10:48:39;;;;;;;39.97;21.30;;;7.10;73.00;;;;;;4822144;29;20073;-74
2021/01/06 10:51:05;;;;;;;43.13;23.10;;;7.40;72.90;;;;;;4842128;29;20140;-74
2021/01/06 10:53:37;;;;;;;41.58;21.55;;;7.30;72.90;;;;;;4842296;29;20140;-74
2021/01/06 10:56:10;;;;;;;45.92;23.70;;;7.40;72.70;;;;;;4860407;29;20041;-75
2021/01/06 10:59:05;;;;;;;46.10;24.15;;;7.30;72.60;;;;;;4860714;29;20533;-76
2021/01/06 11:05:36;;;;;;;37.47;19.75;;;7.70;72.40;;;;;;4879579;29;20028;-73
2021/01/06 11:08:23;;;;;;;37.97;20.50;;;7.70;72.10;;;;;;4879749;29;20409;-74
2021/01/06 11:11:32;;;;;;;38.58;21.55;;;7.70;72.00;;;;;;4880357;29;20076;-75
2021/01/06 11:18:17;;;;;;;38.42;21.25;;;7.80;71.70;;;;;;4869157;29;20088;-75
2021/01/06 11:21:09;;;;;;;39.45;21.88;;;8.10;71.80;;;;;;4799540;29;20046;-75
2021/01/06 11:23:54;;;;;;;36.20;20.10;;;8.30;71.90;;;;;;4822300;29;20553;-75
2021/01/06 11:27:14;;;;;;;35.97;21.15;;;8.40;71.60;;;;;;4870206;29;20517;-74
2021/01/06 11:33:29;;;;;;;35.08;19.73;;;8.60;71.50;;;;;;4864064;29;20117;-75
2021/01/06 11:43:01;;;;;;;38.30;21.13;;;8.60;71.20;;;;;;4865844;29;20087;-74
2021/01/06 11:52:24;;;;;;;34.50;20.23;;;8.40;71.20;;;;;;4828377;29;20050;-75
2021/01/06 12:01:51;;;;;;;38.13;20.55;;;8.00;71.30;;;;;;4833512;29;20021;-75
2021/01/06 12:04:50;;;;;;;35.60;19.98;;;8.00;71.30;;;;;;4838697;29;20495;-76
2021/01/06 12:07:47;;;;;;;36.63;21.13;;;8.00;71.30;;;;;;4839638;29;20498;-76
2021/01/06 12:10:31;;;;;;;38.20;20.38;;;8.10;71.30;;;;;;4839630;29;20038;-76
2021/01/06 12:13:33;;;;;;;35.03;20.33;;;8.10;71.40;;;;;;4839511;29;20487;-76
2021/01/06 12:16:02;;;;;;;38.03;20.38;;;8.10;71.10;;;;;;4834103;29;20495;-75
2021/01/06 12:19:20;;;;;;;38.42;21.65;;;7.90;71.10;;;;;;4834421;29;20054;-76
2021/01/06 12:22:06;;;;;;;34.92;19.88;;;7.80;71.10;;;;;;4860761;29;20140;-75
2021/01/06 12:24:32;;;;;;;36.25;20.45;;;8.00;71.30;;;;;;4877674;29;20544;-76
2021/01/06 12:27:22;;;;;;;38.42;21.20;;;8.00;71.10;;;;;;4860322;29;20041;-75
2021/01/06 12:29:50;;;;;;;35.75;20.20;;;8.10;71.00;;;;;;4881239;29;20037;-76
2021/01/06 12:35:41;;;;;;;34.65;20.45;;;8.20;70.90;;;;;;4864338;29;20044;-74
2021/01/06 12:38:11;;;;;;;37.00;20.50;;;8.30;70.80;;;;;;4872351;29;20102;-74
2021/01/06 12:41:00;;;;;;;36.95;20.77;;;8.30;70.70;;;;;;4866055;29;20573;-74
2021/01/06 12:43:57;;;;;;;34.42;19.55;;;8.20;70.70;;;;;;4901651;29;20036;-74
2021/01/06 12:46:45;;;;;;;34.30;19.15;;;8.60;70.50;;;;;;4895427;29;20068;-74
2021/01/06 12:49:13;;;;;;;39.35;22.77;;;8.00;69.90;;;;;;4882584;29;20045;-74
2021/01/06 12:51:44;;;;;;;34.97;20.27;;;8.30;70.00;;;;;;4882028;29;20073;-74
2021/01/06 12:54:18;;;;;;;34.50;20.13;;;8.70;70.30;;;;;;4870683;29;20105;-73
2021/01/06 12:56:46;;;;;;;36.00;20.40;;;8.40;69.60;;;;;;4863234;29;20556;-74
2021/01/06 12:59:21;;;;;;;32.63;18.88;;;8.40;69.60;;;;;;4863332;29;20537;-73
2021/01/06 13:01:59;;;;;;;;;;;8.40;69.60;;;;;;4863993;29;20570;-74
2021/01/06 13:07:38;;;;;;;36.08;20.52;;;8.40;69.70;;;;;;4859233;29;20045;-74
2021/01/06 13:10:25;;;;;;;36.88;19.90;;;8.20;69.60;;;;;;4863428;29;20042;-74
2021/01/06 13:12:57;;;;;;;36.67;19.95;;;8.30;69.60;;;;;;4859426;29;20049;-74
2021/01/06 13:15:32;;;;;;;35.70;20.65;;;8.20;69.40;;;;;;4863480;29;20557;-74
2021/01/06 13:18:17;;;;;;;35.30;20.08;;;8.30;69.60;;;;;;4863127;29;20400;-74
2021/01/06 13:21:03;;;;;;;35.53;20.00;;;8.40;69.40;;;;;;4863564;29;20490;-74
2021/01/06 13:23:38;;;;;;;35.63;20.42;;;8.40;69.30;;;;;;4877317;29;20041;-74
2021/01/06 13:26:22;;;;;;;35.53;20.58;;;8.40;69.40;;;;;;4862929;29;20248;-74
2021/01/06 13:29:10;;;;;;;34.72;20.17;;;8.50;69.30;;;;;;4862987;29;20044;-74
2021/01/06 13:32:23;;;;;;;35.65;19.70;;;8.70;68.90;;;;;;4852690;29;20443;-74
2021/01/06 13:41:45;;;;;;;36.35;20.05;;;8.50;68.60;;;;;;4848047;29;20028;-74
2021/01/06 13:44:45;;;;;;;34.40;20.15;;;8.30;68.20;;;;;;4865268;29;20049;-74
2021/01/06 13:50:49;;;;;;;36.28;20.40;;;8.30;68.30;;;;;;4769186;29;20046;-75
2021/01/06 13:53:15;;;;;;;35.95;20.33;;;8.40;68.30;;;;;;4868945;29;20125;-74
2021/01/06 13:55:43;;;;;;;37.10;21.00;;;8.40;68.00;;;;;;4870950;29;20140;-74
2021/01/06 13:58:30;;;;;;;34.63;20.63;;;8.40;68.00;;;;;;4884135;29;20063;-74
2021/01/06 14:01:09;;;;;;;38.42;21.00;;;8.60;68.20;;;;;;4862420;29;20065;-74
2021/01/06 14:03:46;;;;;;;35.72;20.23;;;8.70;68.00;;;;;;4860768;29;20128;-74
2021/01/06 14:06:23;;;;;;;41.92;21.08;;;8.70;67.70;;;;;;4876597;29;20167;-74
2021/01/06 14:09:08;;;;;;;36.20;20.38;;;8.80;67.40;;;;;;4886329;29;20038;-74
2021/01/06 14:11:51;;;;;;;38.15;21.20;;;8.70;67.20;;;;;;4899468;29;20043;-74
2021/01/06 14:14:35;;;;;;;36.78;21.05;;;8.80;67.30;;;;;;4899938;29;20045;-74
2021/01/06 14:17:13;;;;;;;36.83;21.25;;;8.50;67.00;;;;;;4887280;29;20049;-74
2021/01/06 14:20:00;;;;;;;37.78;21.77;;;8.60;67.00;;;;;;4867040;29;20041;-74
2021/01/06 14:22:35;;;;;;;33.80;19.90;;;8.70;67.50;;;;;;4880872;29;20093;-74
2021/01/06 14:25:22;;;;;;;36.58;21.05;;;8.60;67.40;;;;;;4880619;29;20121;-74
2021/01/06 14:31:42;;;;;;;36.42;19.88;;;8.40;66.90;;;;;;4880239;29;20024;-74
2021/01/06 14:34:28;;;;;;;35.67;19.65;;;8.40;67.00;;;;;;4880670;29;20045;-74
2021/01/06 14:37:15;;;;;;;37.40;20.20;;;8.50;67.20;;;;;;4880721;29;20044;-74
2021/01/06 14:40:01;;;;;;;35.67;20.13;;;8.50;66.80;;;;;;4880320;29;20572;-74
2021/01/06 14:42:45;;;;;;;34.30;19.25;;;8.40;66.80;;;;;;4880781;29;20116;-74
2021/01/06 14:45:29;;;;;;;37.40;20.45;;;8.50;66.90;;;;;;4880365;29;20037;-74
2021/01/06 14:48:04;;;;;;;38.63;20.57;;;8.30;66.70;;;;;;4877547;29;20041;-74
2021/01/06 14:51:05;;;;;;;37.30;19.63;;;8.40;66.90;;;;;;4863521;29;20037;-74
2021/01/06 14:54:05;;;;;;;33.50;19.55;;;8.40;66.60;;;;;;4858677;29;20765;-74
2021/01/06 14:57:02;;;;;;;36.40;19.52;;;8.30;66.70;;;;;;4862477;29;20109;-74
2021/01/06 14:59:41;;;;;;;38.70;20.73;;;8.20;66.80;;;;;;4878745;29;20539;-74
2021/01/06 15:02:32;;;;;;;36.08;19.70;;;8.00;66.70;;;;;;4878909;29;20041;-73
2021/01/06 15:05:25;;;;;;;37.58;19.73;;;8.30;66.80;;;;;;4880299;29;20048;-74
2021/01/06 15:08:25;;;;;;;36.40;20.45;;;8.10;66.70;;;;;;4863240;29;20072;-73
2021/01/06 15:11:23;;;;;;;37.45;20.08;;;8.20;66.80;;;;;;4829583;29;20093;-74
2021/01/06 15:14:02;;;;;;;37.20;19.80;;;8.10;66.60;;;;;;4879683;29;20044;-74
2021/01/06 15:16:29;;;;;;;35.42;19.50;;;8.00;66.60;;;;;;4879987;29;20033;-74
2021/01/06 15:18:58;;;;;;;37.08;19.48;;;8.10;66.90;;;;;;4893612;29;20128;-74
2021/01/06 15:21:46;;;;;;;38.75;20.05;;;7.90;66.90;;;;;;4879480;29;20497;-74
2021/01/06 15:24:24;;;;;;;37.80;20.25;;;7.80;67.00;;;;;;4879913;29;20052;-74
2021/01/06 15:26:57;;;;;;;38.25;21.33;;;7.70;67.00;;;;;;4879679;29;20043;-74
2021/01/06 15:29:30;;;;;;;40.05;21.10;;;7.80;67.20;;;;;;4878325;29;20384;-74
2021/01/06 15:32:17;;;;;;;37.55;20.35;;;7.50;67.00;;;;;;4879694;29;20120;-74
2021/01/06 15:34:42;;;;;;;36.40;20.27;;;7.60;67.20;;;;;;4879093;29;20056;-74
2021/01/06 15:37:15;;;;;;;35.92;19.77;;;7.50;67.40;;;;;;4879250;29;20497;-73
2021/01/06 15:39:42;;;;;;;36.60;19.55;;;7.50;67.30;;;;;;4879489;29;20549;-74
2021/01/06 15:42:29;;;;;;;37.95;20.27;;;7.60;67.40;;;;;;4879360;29;20048;-74
2021/01/06 15:44:58;;;;;;;36.60;20.25;;;7.40;67.30;;;;;;4878112;29;20037;-74